sensor_id;sensor_type;location;lat;lon;timestamp;pressure;altitude;pressure_sealevel;temperature;humidity
22047;BME280;11187;49.412;20.956;2023-03-14T00:00:26;94164.53;;;6.18;81.49
22047;BME280;11187;49.412;20.956;2023-03-14T00:02:59;94168.75;;;6.19;81.48
22047;BME280;11187;49.412;20.956;2023-03-14T00:05:45;94162.81;;;6.18;81.23
22047;BME280;11187;49.412;20.956;2023-03-14T00:08:19;94167.84;;;6.21;81.02
22047;BME280;11187;49.412;20.956;2023-03-14T00:11:17;94150.88;;;6.22;80.88
22047;BME280;11187;49.412;20.956;2023-03-14T00:13:51;94155.13;;;6.23;80.82
22047;BME280;11187;49.412;20.956;2023-03-14T00:16:46;94156.78;;;6.25;80.40
22047;BME280;11187;49.412;20.956;2023-03-14T00:19:19;94156.72;;;6.28;80.42
22047;BME280;11187;49.412;20.956;2023-03-14T00:22:12;94143.19;;;6.26;80.42
22047;BME280;11187;49.412;20.956;2023-03-14T00:25:08;94149.13;;;6.27;80.57
22047;BME280;11187;49.412;20.956;2023-03-14T00:27:42;94150.72;;;6.31;80.04
22047;BME280;11187;49.412;20.956;2023-03-14T00:30:29;94150.69;;;6.34;80.33
22047;BME280;11187;49.412;20.956;2023-03-14T00:33:02;94143.09;;;6.33;79.82
22047;BME280;11187;49.412;20.956;2023-03-14T00:35:58;94143.91;;;6.33;79.88
22047;BME280;11187;49.412;20.956;2023-03-14T00:38:32;94140.59;;;6.30;79.42
22047;BME280;11187;49.412;20.956;2023-03-14T00:41:23;94134.69;;;6.29;79.24
22047;BME280;11187;49.412;20.956;2023-03-14T00:43:57;94139.72;;;6.32;79.71
22047;BME280;11187;49.412;20.956;2023-03-14T00:46:43;94127.00;;;6.32;80.01
22047;BME280;11187;49.412;20.956;2023-03-14T00:49:17;94123.66;;;6.28;79.65
22047;BME280;11187;49.412;20.956;2023-03-14T00:52:04;94117.72;;;6.30;79.78
22047;BME280;11187;49.412;20.956;2023-03-14T00:54:37;94116.09;;;6.27;80.01
22047;BME280;11187;49.412;20.956;2023-03-14T00:57:31;94117.84;;;6.22;80.05
22047;BME280;11187;49.412;20.956;2023-03-14T01:00:04;94112.00;;;6.17;79.91
22047;BME280;11187;49.412;20.956;2023-03-14T01:02:59;94086.69;;;6.11;79.71
22047;BME280;11187;49.412;20.956;2023-03-14T01:05:54;94077.41;;;6.10;79.95
22047;BME280;11187;49.412;20.956;2023-03-14T01:08:27;94064.78;;;6.05;80.13
22047;BME280;11187;49.412;20.956;2023-03-14T01:11:17;94058.03;;;6.04;80.17
22047;BME280;11187;49.412;20.956;2023-03-14T01:13:52;94040.22;;;6.04;80.57
22047;BME280;11187;49.412;20.956;2023-03-14T01:16:39;94040.31;;;5.99;80.43
22047;BME280;11187;49.412;20.956;2023-03-14T01:19:12;94020.00;;;5.99;80.55
22047;BME280;11187;49.412;20.956;2023-03-14T01:21:59;94017.41;;;6.02;80.41
22047;BME280;11187;49.412;20.956;2023-03-14T01:24:32;94020.72;;;6.06;80.20
22047;BME280;11187;49.412;20.956;2023-03-14T01:27:18;94023.25;;;6.06;80.30
22047;BME280;11187;49.412;20.956;2023-03-14T01:29:52;94025.84;;;6.04;80.22
22047;BME280;11187;49.412;20.956;2023-03-14T01:32:39;94019.91;;;6.04;80.37
22047;BME280;11187;49.412;20.956;2023-03-14T01:35:12;94007.28;;;6.01;80.00
22047;BME280;11187;49.412;20.956;2023-03-14T01:37:59;94007.28;;;6.01;79.88
22047;BME280;11187;49.412;20.956;2023-03-14T01:40:32;93996.28;;;6.00;79.66
22047;BME280;11187;49.412;20.956;2023-03-14T01:43:20;94000.56;;;5.97;79.61
22047;BME280;11187;49.412;20.956;2023-03-14T01:54:55;93987.50;;;5.69;79.43
22047;BME280;11187;49.412;20.956;2023-03-14T01:57:54;93984.25;;;5.62;79.35
22047;BME280;11187;49.412;20.956;2023-03-14T02:00:30;93987.72;;;5.56;79.71
22047;BME280;11187;49.412;20.956;2023-03-14T02:03:20;93975.16;;;5.49;79.55
22047;BME280;11187;49.412;20.956;2023-03-14T02:05:59;93975.25;;;5.44;79.42
22047;BME280;11187;49.412;20.956;2023-03-14T02:08:51;93961.72;;;5.43;79.75
22047;BME280;11187;49.412;20.956;2023-03-14T02:11:28;93960.06;;;5.41;80.24
22047;BME280;11187;49.412;20.956;2023-03-14T02:14:28;93971.13;;;5.37;80.19
22047;BME280;11187;49.412;20.956;2023-03-14T02:17:04;93968.69;;;5.31;81.05
22047;BME280;11187;49.412;20.956;2023-03-14T02:23:07;93951.16;;;5.17;81.18
22047;BME280;11187;49.412;20.956;2023-03-14T02:26:07;93941.09;;;5.11;80.95
22047;BME280;11187;49.412;20.956;2023-03-14T02:28:42;93945.34;;;5.12;81.01
22047;BME280;11187;49.412;20.956;2023-03-14T02:31:30;93937.78;;;5.09;81.29
22047;BME280;11187;49.412;20.956;2023-03-14T02:34:03;93931.91;;;5.07;81.37
22047;BME280;11187;49.412;20.956;2023-03-14T02:36:51;93932.75;;;5.04;81.10
22047;BME280;11187;49.412;20.956;2023-03-14T02:39:35;93934.44;;;5.07;81.05
22047;BME280;11187;49.412;20.956;2023-03-14T02:42:24;93940.34;;;5.07;80.24
22047;BME280;11187;49.412;20.956;2023-03-14T02:48:22;93925.06;;;5.10;81.47
22047;BME280;11187;49.412;20.956;2023-03-14T02:50:59;93913.25;;;5.08;81.62
22047;BME280;11187;49.412;20.956;2023-03-14T02:53:48;93916.72;;;5.03;81.33
22047;BME280;11187;49.412;20.956;2023-03-14T02:56:42;93916.75;;;5.00;80.75
22047;BME280;11187;49.412;20.956;2023-03-14T02:59:36;93920.13;;;5.02;81.21
22047;BME280;11187;49.412;20.956;2023-03-14T03:02:30;93917.63;;;4.99;81.13
22047;BME280;11187;49.412;20.956;2023-03-14T03:05:24;93916.84;;;4.94;81.26
22047;BME280;11187;49.412;20.956;2023-03-14T03:08:19;93912.66;;;4.93;80.60
22047;BME280;11187;49.412;20.956;2023-03-14T03:11:14;93921.16;;;4.91;81.90
22047;BME280;11187;49.412;20.956;2023-03-14T03:14:08;93900.06;;;4.87;81.38
22047;BME280;11187;49.412;20.956;2023-03-14T03:17:02;93906.88;;;4.84;81.59
22047;BME280;11187;49.412;20.956;2023-03-14T03:19:35;93903.59;;;4.78;81.74
22047;BME280;11187;49.412;20.956;2023-03-14T03:22:22;93894.31;;;4.77;82.12
22047;BME280;11187;49.412;20.956;2023-03-14T03:24:55;93890.97;;;4.75;82.58
22047;BME280;11187;49.412;20.956;2023-03-14T03:27:49;93896.06;;;4.74;81.60
22047;BME280;11187;49.412;20.956;2023-03-14T03:30:22;93884.19;;;4.76;81.77
22047;BME280;11187;49.412;20.956;2023-03-14T03:33:09;93870.69;;;4.75;81.45
22047;BME280;11187;49.412;20.956;2023-03-14T03:35:48;93875.78;;;4.74;81.75
22047;BME280;11187;49.412;20.956;2023-03-14T03:38:36;93874.91;;;4.75;81.26
22047;BME280;11187;49.412;20.956;2023-03-14T03:41:09;93874.84;;;4.79;81.41
22047;BME280;11187;49.412;20.956;2023-03-14T03:43:56;93874.03;;;4.77;80.93
22047;BME280;11187;49.412;20.956;2023-03-14T03:46:30;93863.00;;;4.80;81.09
22047;BME280;11187;49.412;20.956;2023-03-14T03:49:17;93848.59;;;4.82;80.25
22047;BME280;11187;49.412;20.956;2023-03-14T03:51:50;93846.03;;;4.84;80.60
22047;BME280;11187;49.412;20.956;2023-03-14T03:54:44;93835.88;;;4.84;80.85
22047;BME280;11187;49.412;20.956;2023-03-14T03:57:38;93834.22;;;4.82;80.48
22047;BME280;11187;49.412;20.956;2023-03-14T04:00:11;93832.50;;;4.83;80.63
22047;BME280;11187;49.412;20.956;2023-03-14T04:02:58;93826.59;;;4.82;79.87
22047;BME280;11187;49.412;20.956;2023-03-14T04:05:32;93830.81;;;4.84;80.13
22047;BME280;11187;49.412;20.956;2023-03-14T04:08:19;93811.47;;;4.79;79.45
22047;BME280;11187;49.412;20.956;2023-03-14T04:10:59;93808.03;;;4.82;79.23
22047;BME280;11187;49.412;20.956;2023-03-14T04:13:47;93813.06;;;4.84;79.79
22047;BME280;11187;49.412;20.956;2023-03-14T04:16:22;93821.53;;;4.82;79.58
22047;BME280;11187;49.412;20.956;2023-03-14T04:19:11;93802.97;;;4.80;78.87
22047;BME280;11187;49.412;20.956;2023-03-14T04:21:44;93796.19;;;4.82;79.28
22047;BME280;11187;49.412;20.956;2023-03-14T04:24:31;93780.16;;;4.80;79.39
22047;BME280;11187;49.412;20.956;2023-03-14T04:27:04;93771.78;;;4.77;79.91
22047;BME280;11187;49.412;20.956;2023-03-14T04:29:58;93770.97;;;4.75;80.09
22047;BME280;11187;49.412;20.956;2023-03-14T04:32:52;93779.41;;;4.75;80.32
22047;BME280;11187;49.412;20.956;2023-03-14T04:35:25;93773.47;;;4.76;80.37
22047;BME280;11187;49.412;20.956;2023-03-14T04:38:12;93747.19;;;4.80;80.05
22047;BME280;11187;49.412;20.956;2023-03-14T04:40:46;93748.81;;;4.85;80.06
22047;BME280;11187;49.412;20.956;2023-03-14T04:43:33;93753.78;;;4.91;78.98
22047;BME280;11187;49.412;20.956;2023-03-14T04:46:06;93767.19;;;4.97;79.60
22047;BME280;11187;49.412;20.956;2023-03-14T04:49:00;93777.28;;;4.99;79.47
22047;BME280;11187;49.412;20.956;2023-03-14T04:51:33;93771.38;;;4.98;79.39
22047;BME280;11187;49.412;20.956;2023-03-14T04:54:20;93767.19;;;4.97;79.50
22047;BME280;11187;49.412;20.956;2023-03-14T04:56:53;93758.78;;;4.95;79.43
22047;BME280;11187;49.412;20.956;2023-03-14T04:59:40;93771.47;;;4.92;79.32
22047;BME280;11187;49.412;20.956;2023-03-14T05:02:13;93763.13;;;4.89;79.36
22047;BME280;11187;49.412;20.956;2023-03-14T05:05:07;93763.13;;;4.87;78.99
22047;BME280;11187;49.412;20.956;2023-03-14T05:07:40;93769.94;;;4.84;79.27
22047;BME280;11187;49.412;20.956;2023-03-14T05:10:27;93773.44;;;4.78;79.24
22047;BME280;11187;49.412;20.956;2023-03-14T05:13:00;93764.19;;;4.77;79.50
22047;BME280;11187;49.412;20.956;2023-03-14T05:15:47;93753.25;;;4.72;79.46
22047;BME280;11187;49.412;20.956;2023-03-14T05:18:20;93747.38;;;4.70;79.64
22047;BME280;11187;49.412;20.956;2023-03-14T05:21:07;93749.09;;;4.68;79.50
22047;BME280;11187;49.412;20.956;2023-03-14T05:23:40;93760.94;;;4.67;79.72
22047;BME280;11187;49.412;20.956;2023-03-14T05:26:27;93761.84;;;4.65;79.26
22047;BME280;11187;49.412;20.956;2023-03-14T05:29:00;93774.53;;;4.65;79.41
22047;BME280;11187;49.412;20.956;2023-03-14T05:31:47;93767.72;;;4.67;79.86
22047;BME280;11187;49.412;20.956;2023-03-14T05:34:20;93767.66;;;4.70;79.89
22047;BME280;11187;49.412;20.956;2023-03-14T05:37:07;93760.88;;;4.72;79.17
22047;BME280;11187;49.412;20.956;2023-03-14T05:39:40;93730.41;;;4.75;79.90
22047;BME280;11187;49.412;20.956;2023-03-14T05:42:34;93723.53;;;4.80;80.11
22047;BME280;11187;49.412;20.956;2023-03-14T05:45:28;93719.31;;;4.80;79.89
22047;BME280;11187;49.412;20.956;2023-03-14T05:48:22;93706.56;;;4.84;79.51
22047;BME280;11187;49.412;20.956;2023-03-14T05:50:56;93693.75;;;4.91;79.83
22047;BME280;11187;49.412;20.956;2023-03-14T05:53:43;93692.78;;;4.97;79.66
22047;BME280;11187;49.412;20.956;2023-03-14T05:56:37;93696.94;;;4.99;79.45
22047;BME280;11187;49.412;20.956;2023-03-14T05:59:31;93697.72;;;5.05;79.12
22047;BME280;11187;49.412;20.956;2023-03-14T06:02:04;93700.91;;;5.13;79.33
22047;BME280;11187;49.412;20.956;2023-03-14T06:04:51;93693.22;;;5.17;79.58
22047;BME280;11187;49.412;20.956;2023-03-14T06:07:25;93677.94;;;5.20;79.91
22047;BME280;11187;49.412;20.956;2023-03-14T06:10:12;93666.78;;;5.28;80.50
22047;BME280;11187;49.412;20.956;2023-03-14T06:12:45;93654.81;;;5.34;80.51
22047;BME280;11187;49.412;20.956;2023-03-14T06:15:32;93646.16;;;5.43;80.12
22047;BME280;11187;49.412;20.956;2023-03-14T06:18:05;93640.06;;;5.50;79.83
22047;BME280;11187;49.412;20.956;2023-03-14T06:20:55;93622.91;;;5.61;79.30
22047;BME280;11187;49.412;20.956;2023-03-14T06:23:29;93616.44;;;5.84;78.99
22047;BME280;11187;49.412;20.956;2023-03-14T06:26:23;93615.91;;;6.07;78.26
22047;BME280;11187;49.412;20.956;2023-03-14T06:28:56;93616.34;;;6.23;78.05
22047;BME280;11187;49.412;20.956;2023-03-14T06:31:50;93622.94;;;6.30;77.14
22047;BME280;11187;49.412;20.956;2023-03-14T06:34:44;93616.00;;;6.35;77.09
22047;BME280;11187;49.412;20.956;2023-03-14T06:37:17;93616.69;;;6.42;77.29
22047;BME280;11187;49.412;20.956;2023-03-14T06:40:04;93616.56;;;6.46;77.09
22047;BME280;11187;49.412;20.956;2023-03-14T06:42:38;93621.53;;;6.51;76.90
22047;BME280;11187;49.412;20.956;2023-03-14T06:45:32;93636.63;;;6.57;77.10
22047;BME280;11187;49.412;20.956;2023-03-14T06:48:26;93639.00;;;6.63;77.35
22047;BME280;11187;49.412;20.956;2023-03-14T06:50:59;93643.16;;;6.66;77.67
22047;BME280;11187;49.412;20.956;2023-03-14T06:53:48;93644.78;;;6.68;77.78
22047;BME280;11187;49.412;20.956;2023-03-14T06:56:42;93656.50;;;6.74;77.94
22047;BME280;11187;49.412;20.956;2023-03-14T06:59:36;93657.22;;;6.79;77.61
22047;BME280;11187;49.412;20.956;2023-03-14T07:02:12;93661.25;;;6.86;78.23
22047;BME280;11187;49.412;20.956;2023-03-14T07:05:21;93654.22;;;6.95;77.46
22047;BME280;11187;49.412;20.956;2023-03-14T07:07:54;93637.94;;;7.02;76.64
22047;BME280;11187;49.412;20.956;2023-03-14T07:10:48;93623.28;;;7.10;76.26
22047;BME280;11187;49.412;20.956;2023-03-14T07:13:42;93625.50;;;7.21;76.43
22047;BME280;11187;49.412;20.956;2023-03-14T07:16:36;93621.78;;;7.32;75.63
22047;BME280;11187;49.412;20.956;2023-03-14T07:19:10;93614.63;;;7.44;75.85
22047;BME280;11187;49.412;20.956;2023-03-14T07:22:04;93612.44;;;7.60;76.11
22047;BME280;11187;49.412;20.956;2023-03-14T07:24:59;93617.25;;;7.69;75.03
22047;BME280;11187;49.412;20.956;2023-03-14T07:27:53;93612.69;;;7.79;75.10
22047;BME280;11187;49.412;20.956;2023-03-14T07:30:26;93613.19;;;7.90;74.94
22047;BME280;11187;49.412;20.956;2023-03-14T07:33:13;93617.75;;;8.07;74.34
22047;BME280;11187;49.412;20.956;2023-03-14T07:35:49;93621.34;;;8.26;73.97
22047;BME280;11187;49.412;20.956;2023-03-14T07:38:44;93619.56;;;8.55;74.67
22047;BME280;11187;49.412;20.956;2023-03-14T07:41:39;93615.50;;;8.74;73.06
22047;BME280;11187;49.412;20.956;2023-03-14T07:44:12;93605.56;;;8.90;72.84
22047;BME280;11187;49.412;20.956;2023-03-14T07:46:59;93613.72;;;9.00;72.54
22047;BME280;11187;49.412;20.956;2023-03-14T07:49:32;93612.00;;;9.01;72.37
22047;BME280;11187;49.412;20.956;2023-03-14T07:52:19;93619.47;;;9.05;71.46
22047;BME280;11187;49.412;20.956;2023-03-14T07:54:52;93616.09;;;9.05;71.86
22047;BME280;11187;49.412;20.956;2023-03-14T07:57:46;93606.09;;;8.98;71.98
22047;BME280;11187;49.412;20.956;2023-03-14T08:00:19;93596.81;;;8.97;71.74
22047;BME280;11187;49.412;20.956;2023-03-14T08:03:14;93597.66;;;8.96;72.08
22047;BME280;11187;49.412;20.956;2023-03-14T08:05:48;93595.13;;;8.96;72.07
22047;BME280;11187;49.412;20.956;2023-03-14T08:08:43;93592.53;;;8.98;72.18
22047;BME280;11187;49.412;20.956;2023-03-14T08:11:37;93591.78;;;8.94;71.78
22047;BME280;11187;49.412;20.956;2023-03-14T08:14:31;93588.25;;;8.98;71.82
22047;BME280;11187;49.412;20.956;2023-03-14T08:17:04;93564.63;;;8.93;71.87
22047;BME280;11187;49.412;20.956;2023-03-14T08:19:51;93567.00;;;8.98;71.79
22047;BME280;11187;49.412;20.956;2023-03-14T08:22:24;93577.69;;;9.08;72.13
22047;BME280;11187;49.412;20.956;2023-03-14T08:25:11;93571.53;;;9.13;71.31
22047;BME280;11187;49.412;20.956;2023-03-14T08:27:44;93556.41;;;9.09;71.36
22047;BME280;11187;49.412;20.956;2023-03-14T08:30:38;93565.66;;;9.11;71.79
22047;BME280;11187;49.412;20.956;2023-03-14T08:33:32;93565.56;;;9.13;71.42
22047;BME280;11187;49.412;20.956;2023-03-14T08:36:05;93590.00;;;9.20;71.59
22047;BME280;11187;49.412;20.956;2023-03-14T08:38:53;93590.78;;;9.22;71.90
22047;BME280;11187;49.412;20.956;2023-03-14T08:41:26;93588.66;;;9.33;71.09
22047;BME280;11187;49.412;20.956;2023-03-14T08:44:20;93586.22;;;9.30;70.76
22047;BME280;11187;49.412;20.956;2023-03-14T08:47:14;93572.00;;;9.23;71.29
22047;BME280;11187;49.412;20.956;2023-03-14T08:49:47;93577.25;;;9.20;71.80
22047;BME280;11187;49.412;20.956;2023-03-14T08:52:34;93584.13;;;9.18;71.65
22047;BME280;11187;49.412;20.956;2023-03-14T08:55:08;93573.00;;;9.19;71.72
22047;BME280;11187;49.412;20.956;2023-03-14T08:58:03;93580.56;;;9.22;72.33
22047;BME280;11187;49.412;20.956;2023-03-14T09:00:36;93579.66;;;9.23;72.77
22047;BME280;11187;49.412;20.956;2023-03-14T09:03:30;93571.22;;;9.21;71.87
22047;BME280;11187;49.412;20.956;2023-03-14T09:06:24;93581.22;;;9.27;72.08
22047;BME280;11187;49.412;20.956;2023-03-14T09:09:18;93585.84;;;9.39;72.12
22047;BME280;11187;49.412;20.956;2023-03-14T09:11:51;93601.69;;;9.49;71.73
22047;BME280;11187;49.412;20.956;2023-03-14T09:14:38;93597.22;;;9.54;71.52
22047;BME280;11187;49.412;20.956;2023-03-14T09:17:11;93612.38;;;9.59;71.75
22047;BME280;11187;49.412;20.956;2023-03-14T09:19:58;93618.84;;;9.68;71.18
22047;BME280;11187;49.412;20.956;2023-03-14T09:22:31;93623.41;;;9.81;71.10
22047;BME280;11187;49.412;20.956;2023-03-14T09:25:25;93607.00;;;9.87;70.47
22047;BME280;11187;49.412;20.956;2023-03-14T09:27:58;93613.78;;;9.88;70.78
22047;BME280;11187;49.412;20.956;2023-03-14T09:30:52;93626.03;;;9.80;70.95
22047;BME280;11187;49.412;20.956;2023-03-14T09:33:25;93625.97;;;9.81;70.62
22047;BME280;11187;49.412;20.956;2023-03-14T09:36:19;93611.78;;;9.74;70.80
22047;BME280;11187;49.412;20.956;2023-03-14T09:39:13;93612.47;;;9.78;71.56
22047;BME280;11187;49.412;20.956;2023-03-14T09:41:49;93598.91;;;9.76;71.06
22047;BME280;11187;49.412;20.956;2023-03-14T09:44:54;93600.19;;;9.66;71.08
22047;BME280;11187;49.412;20.956;2023-03-14T09:47:49;93590.91;;;9.63;71.71
22047;BME280;11187;49.412;20.956;2023-03-14T09:50:47;93602.00;;;9.62;70.92
22047;BME280;11187;49.412;20.956;2023-03-14T09:53:26;93608.63;;;9.68;71.99
22047;BME280;11187;49.412;20.956;2023-03-14T09:56:30;93596.94;;;9.82;72.18
22047;BME280;11187;49.412;20.956;2023-03-14T09:59:27;93599.78;;;9.97;71.58
22047;BME280;11187;49.412;20.956;2023-03-14T10:02:32;93601.03;;;10.09;71.07
22047;BME280;11187;49.412;20.956;2023-03-14T10:05:21;93598.09;;;10.18;71.11
22047;BME280;11187;49.412;20.956;2023-03-14T10:08:13;93603.72;;;10.26;71.37
22047;BME280;11187;49.412;20.956;2023-03-14T10:10:46;93603.28;;;10.37;70.80
22047;BME280;11187;49.412;20.956;2023-03-14T10:16:50;93590.28;;;10.62;71.29
22047;BME280;11187;49.412;20.956;2023-03-14T10:19:23;93593.06;;;10.76;70.75
22047;BME280;11187;49.412;20.956;2023-03-14T10:22:13;93581.41;;;10.90;69.89
22047;BME280;11187;49.412;20.956;2023-03-14T10:24:53;93578.16;;;11.05;70.49
22047;BME280;11187;49.412;20.956;2023-03-14T10:27:40;93565.28;;;11.25;69.51
22047;BME280;11187;49.412;20.956;2023-03-14T10:30:37;93557.06;;;11.38;68.68
22047;BME280;11187;49.412;20.956;2023-03-14T10:33:36;93561.16;;;11.59;69.00
22047;BME280;11187;49.412;20.956;2023-03-14T10:36:33;93570.75;;;11.73;68.07
22047;BME280;11187;49.412;20.956;2023-03-14T10:39:34;93573.63;;;11.84;67.67
22047;BME280;11187;49.412;20.956;2023-03-14T10:42:16;93565.75;;;11.89;67.01
22047;BME280;11187;49.412;20.956;2023-03-14T10:45:29;93573.28;;;11.92;67.77
22047;BME280;11187;49.412;20.956;2023-03-14T10:48:18;93571.72;;;12.07;67.70
22047;BME280;11187;49.412;20.956;2023-03-14T10:54:01;93564.19;;;12.21;66.59
22047;BME280;11187;49.412;20.956;2023-03-14T10:56:58;93562.81;;;12.31;66.54
22047;BME280;11187;49.412;20.956;2023-03-14T10:59:37;93567.50;;;12.41;66.71
22047;BME280;11187;49.412;20.956;2023-03-14T11:02:59;93568.91;;;12.46;65.35
22047;BME280;11187;49.412;20.956;2023-03-14T11:06:00;93554.38;;;12.47;66.33
22047;BME280;11187;49.412;20.956;2023-03-14T11:11:37;93550.56;;;12.54;65.78
22047;BME280;11187;49.412;20.956;2023-03-14T11:14:15;93558.75;;;12.45;65.87
22047;BME280;11187;49.412;20.956;2023-03-14T11:17:39;93565.09;;;12.38;65.29
22047;BME280;11187;49.412;20.956;2023-03-14T11:20:46;93562.00;;;12.31;66.28
22047;BME280;11187;49.412;20.956;2023-03-14T11:23:33;93560.03;;;12.36;66.93
22047;BME280;11187;49.412;20.956;2023-03-14T11:29:02;93560.16;;;12.33;66.47
22047;BME280;11187;49.412;20.956;2023-03-14T11:32:10;93561.16;;;12.30;66.69
22047;BME280;11187;49.412;20.956;2023-03-14T11:38:37;93582.91;;;12.23;66.86
22047;BME280;11187;49.412;20.956;2023-03-14T11:41:20;93567.78;;;12.17;66.74
22047;BME280;11187;49.412;20.956;2023-03-14T11:47:15;93559.41;;;11.96;66.95
22047;BME280;11187;49.412;20.956;2023-03-14T11:50:25;93562.19;;;11.74;67.84
22047;BME280;11187;49.412;20.956;2023-03-14T11:53:07;93552.88;;;11.71;67.77
22047;BME280;11187;49.412;20.956;2023-03-14T11:56:03;93553.31;;;11.62;68.50
22047;BME280;11187;49.412;20.956;2023-03-14T11:59:03;93543.59;;;11.52;68.74
22047;BME280;11187;49.412;20.956;2023-03-14T12:01:58;93540.91;;;11.36;68.78
22047;BME280;11187;49.412;20.956;2023-03-14T12:08:16;93540.00;;;11.37;69.82
22047;BME280;11187;49.412;20.956;2023-03-14T12:14:33;93539.47;;;11.30;70.62
22047;BME280;11187;49.412;20.956;2023-03-14T12:17:18;93547.00;;;11.33;70.74
22047;BME280;11187;49.412;20.956;2023-03-14T12:20:22;93541.84;;;11.52;70.09
22047;BME280;11187;49.412;20.956;2023-03-14T12:23:03;93532.53;;;11.68;70.45
22047;BME280;11187;49.412;20.956;2023-03-14T12:31:44;93537.38;;;11.75;69.68
22047;BME280;11187;49.412;20.956;2023-03-14T12:34:33;93531.63;;;11.69;69.46
22047;BME280;11187;49.412;20.956;2023-03-14T12:40:10;93525.97;;;11.80;70.44
22047;BME280;11187;49.412;20.956;2023-03-14T12:43:01;93532.47;;;11.70;70.05
22047;BME280;11187;49.412;20.956;2023-03-14T12:51:42;93519.44;;;11.56;71.24
22047;BME280;11187;49.412;20.956;2023-03-14T13:00:32;93507.13;;;11.27;71.32
22047;BME280;11187;49.412;20.956;2023-03-14T13:03:24;93511.56;;;11.24;71.84
22047;BME280;11187;49.412;20.956;2023-03-14T13:06:02;93516.69;;;11.24;71.56
22047;BME280;11187;49.412;20.956;2023-03-14T13:08:56;93515.53;;;11.12;72.30
22047;BME280;11187;49.412;20.956;2023-03-14T13:11:33;93514.31;;;11.02;72.28
22047;BME280;11187;49.412;20.956;2023-03-14T13:14:20;93517.34;;;10.91;71.94
22047;BME280;11187;49.412;20.956;2023-03-14T13:16:55;93522.47;;;10.91;72.18
22047;BME280;11187;49.412;20.956;2023-03-14T13:20:11;93510.69;;;10.87;72.79
22047;BME280;11187;49.412;20.956;2023-03-14T13:22:47;93515.91;;;10.85;72.28
22047;BME280;11187;49.412;20.956;2023-03-14T13:25:42;93521.34;;;10.78;72.37
22047;BME280;11187;49.412;20.956;2023-03-14T13:28:16;93526.63;;;10.75;72.51
22047;BME280;11187;49.412;20.956;2023-03-14T13:31:21;93518.91;;;10.56;71.60
22047;BME280;11187;49.412;20.956;2023-03-14T13:34:00;93526.66;;;10.54;72.26
22047;BME280;11187;49.412;20.956;2023-03-14T13:36:47;93525.69;;;10.57;71.94
22047;BME280;11187;49.412;20.956;2023-03-14T13:39:27;93523.28;;;10.54;72.22
22047;BME280;11187;49.412;20.956;2023-03-14T13:42:25;93519.97;;;10.52;72.00
22047;BME280;11187;49.412;20.956;2023-03-14T13:45:19;93528.66;;;10.48;71.74
22047;BME280;11187;49.412;20.956;2023-03-14T13:47:52;93519.31;;;10.47;72.19
22047;BME280;11187;49.412;20.956;2023-03-14T13:50:53;93527.06;;;10.45;71.90
22047;BME280;11187;49.412;20.956;2023-03-14T13:53:27;93533.97;;;10.43;72.03
22047;BME280;11187;49.412;20.956;2023-03-14T13:56:24;93524.91;;;10.36;71.61
22047;BME280;11187;49.412;20.956;2023-03-14T13:59:31;93522.53;;;10.31;71.75
22047;BME280;11187;49.412;20.956;2023-03-14T14:02:12;93514.94;;;10.30;72.58
22047;BME280;11187;49.412;20.956;2023-03-14T14:05:00;93512.75;;;10.20;71.86
22047;BME280;11187;49.412;20.956;2023-03-14T14:07:34;93521.63;;;10.12;71.83
22047;BME280;11187;49.412;20.956;2023-03-14T14:10:21;93528.78;;;10.03;71.71
22047;BME280;11187;49.412;20.956;2023-03-14T14:13:01;93509.16;;;10.04;72.22
22047;BME280;11187;49.412;20.956;2023-03-14T14:15:51;93511.72;;;10.04;72.04
22047;BME280;11187;49.412;20.956;2023-03-14T14:18:26;93509.28;;;10.01;72.03
22047;BME280;11187;49.412;20.956;2023-03-14T14:21:14;93508.50;;;9.99;71.66
22047;BME280;11187;49.412;20.956;2023-03-14T14:23:48;93518.69;;;10.00;72.42
22047;BME280;11187;49.412;20.956;2023-03-14T14:26:40;93506.88;;;9.98;72.42
22047;BME280;11187;49.412;20.956;2023-03-14T14:29:26;93510.25;;;9.98;72.44
22047;BME280;11187;49.412;20.956;2023-03-14T14:32:14;93508.66;;;9.96;72.39
22047;BME280;11187;49.412;20.956;2023-03-14T14:35:00;93504.50;;;9.93;72.33
22047;BME280;11187;49.412;20.956;2023-03-14T14:37:54;93503.78;;;9.90;72.39
22047;BME280;11187;49.412;20.956;2023-03-14T14:40:29;93506.47;;;9.87;72.77
22047;BME280;11187;49.412;20.956;2023-03-14T14:43:24;93510.00;;;9.84;72.60
22047;BME280;11187;49.412;20.956;2023-03-14T14:46:06;93507.44;;;9.84;73.23
22047;BME280;11187;49.412;20.956;2023-03-14T14:49:10;93505.75;;;9.83;73.24
22047;BME280;11187;49.412;20.956;2023-03-14T14:52:13;93499.97;;;9.79;72.69
22047;BME280;11187;49.412;20.956;2023-03-14T14:55:16;93502.06;;;9.70;73.14
22047;BME280;11187;49.412;20.956;2023-03-14T14:58:29;93501.34;;;9.66;73.25
22047;BME280;11187;49.412;20.956;2023-03-14T15:01:07;93486.16;;;9.63;73.67
22047;BME280;11187;49.412;20.956;2023-03-14T15:04:10;93482.06;;;9.59;73.85
22047;BME280;11187;49.412;20.956;2023-03-14T15:06:47;93481.97;;;9.60;73.83
22047;BME280;11187;49.412;20.956;2023-03-14T15:09:43;93482.06;;;9.59;73.89
22047;BME280;11187;49.412;20.956;2023-03-14T15:12:36;93484.84;;;9.53;73.81
22047;BME280;11187;49.412;20.956;2023-03-14T15:15:30;93483.25;;;9.50;73.51
22047;BME280;11187;49.412;20.956;2023-03-14T15:18:16;93490.88;;;9.52;73.63
22047;BME280;11187;49.412;20.956;2023-03-14T15:21:03;93490.94;;;9.50;74.24
22047;BME280;11187;49.412;20.956;2023-03-14T15:23:37;93495.97;;;9.52;74.25
22047;BME280;11187;49.412;20.956;2023-03-14T15:26:30;93497.69;;;9.51;74.94
22047;BME280;11187;49.412;20.956;2023-03-14T15:29:04;93490.97;;;9.49;74.90
22047;BME280;11187;49.412;20.956;2023-03-14T15:31:58;93494.44;;;9.48;74.84
22047;BME280;11187;49.412;20.956;2023-03-14T15:34:32;93485.88;;;9.49;75.38
22047;BME280;11187;49.412;20.956;2023-03-14T15:37:18;93485.00;;;9.50;75.45